sensor_id;sensor_type;location;lat;lon;timestamp;P1;durP1;ratioP1;P2;durP2;ratioP2
46158;SDS011;31888;44.512;26.104;2023-07-24T00:00:02;13.68;;;6.72;;
46158;SDS011;31888;44.512;26.104;2023-07-24T00:02:26;8.70;;;6.40;;
46158;SDS011;31888;44.512;26.104;2023-07-24T00:04:50;9.65;;;6.70;;
46158;SDS011;31888;44.512;26.104;2023-07-24T00:07:15;11.35;;;6.57;;
46158;SDS011;31888;44.512;26.104;2023-07-24T00:09:39;12.23;;;6.45;;
46158;SDS011;31888;44.512;26.104;2023-07-24T00:12:04;8.50;;;6.15;;
46158;SDS011;31888;44.512;26.104;2023-07-24T00:14:28;8.98;;;6.05;;
46158;SDS011;31888;44.512;26.104;2023-07-24T00:16:52;7.05;;;5.93;;
46158;SDS011;31888;44.512;26.104;2023-07-24T00:19:16;8.30;;;5.55;;
46158;SDS011;31888;44.512;26.104;2023-07-24T00:21:40;8.65;;;6.43;;
46158;SDS011;31888;44.512;26.104;2023-07-24T00:24:07;7.93;;;6.00;;
46158;SDS011;31888;44.512;26.104;2023-07-24T00:26:30;8.70;;;5.78;;
46158;SDS011;31888;44.512;26.104;2023-07-24T00:28:54;8.07;;;6.35;;
46158;SDS011;31888;44.512;26.104;2023-07-24T00:31:18;9.68;;;6.55;;
46158;SDS011;31888;44.512;26.104;2023-07-24T00:33:42;7.10;;;6.38;;
46158;SDS011;31888;44.512;26.104;2023-07-24T00:36:06;8.55;;;6.22;;
46158;SDS011;31888;44.512;26.104;2023-07-24T00:38:30;8.95;;;6.25;;
46158;SDS011;31888;44.512;26.104;2023-07-24T00:40:55;8.57;;;5.85;;
46158;SDS011;31888;44.512;26.104;2023-07-24T00:43:20;13.13;;;6.38;;
46158;SDS011;31888;44.512;26.104;2023-07-24T00:45:44;11.52;;;6.50;;
46158;SDS011;31888;44.512;26.104;2023-07-24T00:48:09;8.48;;;6.20;;
46158;SDS011;31888;44.512;26.104;2023-07-24T00:50:33;10.85;;;6.05;;
46158;SDS011;31888;44.512;26.104;2023-07-24T00:53:00;9.73;;;6.53;;
46158;SDS011;31888;44.512;26.104;2023-07-24T00:55:24;9.63;;;7.00;;
46158;SDS011;31888;44.512;26.104;2023-07-24T00:57:50;9.63;;;6.65;;
46158;SDS011;31888;44.512;26.104;2023-07-24T01:00:14;10.52;;;6.70;;
46158;SDS011;31888;44.512;26.104;2023-07-24T01:02:41;12.55;;;6.68;;
46158;SDS011;31888;44.512;26.104;2023-07-24T01:05:06;11.40;;;6.63;;
46158;SDS011;31888;44.512;26.104;2023-07-24T01:07:31;13.13;;;7.10;;
46158;SDS011;31888;44.512;26.104;2023-07-24T01:09:57;12.52;;;8.13;;
46158;SDS011;31888;44.512;26.104;2023-07-24T01:12:23;13.68;;;8.18;;
46158;SDS011;31888;44.512;26.104;2023-07-24T01:14:58;11.43;;;7.45;;
46158;SDS011;31888;44.512;26.104;2023-07-24T01:17:26;10.73;;;8.10;;
46158;SDS011;31888;44.512;26.104;2023-07-24T01:19:54;12.05;;;7.60;;
46158;SDS011;31888;44.512;26.104;2023-07-24T01:22:24;11.82;;;8.20;;
46158;SDS011;31888;44.512;26.104;2023-07-24T01:25:00;13.95;;;8.10;;
46158;SDS011;31888;44.512;26.104;2023-07-24T01:27:30;10.05;;;7.53;;
46158;SDS011;31888;44.512;26.104;2023-07-24T01:29:54;10.82;;;6.68;;
46158;SDS011;31888;44.512;26.104;2023-07-24T01:32:18;11.82;;;6.80;;
46158;SDS011;31888;44.512;26.104;2023-07-24T01:34:42;11.70;;;6.78;;
46158;SDS011;31888;44.512;26.104;2023-07-24T01:37:07;9.90;;;7.38;;
46158;SDS011;31888;44.512;26.104;2023-07-24T01:39:34;10.23;;;7.22;;
46158;SDS011;31888;44.512;26.104;2023-07-24T01:41:58;12.93;;;7.82;;
46158;SDS011;31888;44.512;26.104;2023-07-24T01:44:24;11.02;;;7.72;;
46158;SDS011;31888;44.512;26.104;2023-07-24T01:46:48;9.55;;;7.45;;
46158;SDS011;31888;44.512;26.104;2023-07-24T01:49:12;9.95;;;7.60;;
46158;SDS011;31888;44.512;26.104;2023-07-24T01:51:38;11.52;;;7.07;;
46158;SDS011;31888;44.512;26.104;2023-07-24T01:54:02;10.77;;;6.30;;
46158;SDS011;31888;44.512;26.104;2023-07-24T01:56:26;11.95;;;6.35;;
46158;SDS011;31888;44.512;26.104;2023-07-24T01:58:50;10.55;;;6.47;;
46158;SDS011;31888;44.512;26.104;2023-07-24T02:01:16;8.82;;;6.28;;
46158;SDS011;31888;44.512;26.104;2023-07-24T02:03:39;10.25;;;6.68;;
46158;SDS011;31888;44.512;26.104;2023-07-24T02:06:06;9.52;;;5.63;;
46158;SDS011;31888;44.512;26.104;2023-07-24T02:08:30;12.40;;;6.57;;
46158;SDS011;31888;44.512;26.104;2023-07-24T02:10:54;10.18;;;6.78;;
46158;SDS011;31888;44.512;26.104;2023-07-24T02:13:19;9.48;;;6.30;;
46158;SDS011;31888;44.512;26.104;2023-07-24T02:15:44;9.82;;;6.63;;
46158;SDS011;31888;44.512;26.104;2023-07-24T02:18:09;14.07;;;7.47;;
46158;SDS011;31888;44.512;26.104;2023-07-24T02:20:33;14.45;;;6.65;;
46158;SDS011;31888;44.512;26.104;2023-07-24T02:22:57;8.48;;;6.18;;
46158;SDS011;31888;44.512;26.104;2023-07-24T02:25:21;8.95;;;5.82;;
46158;SDS011;31888;44.512;26.104;2023-07-24T02:27:45;8.23;;;6.07;;
46158;SDS011;31888;44.512;26.104;2023-07-24T02:30:09;11.20;;;7.78;;
46158;SDS011;31888;44.512;26.104;2023-07-24T02:32:34;9.65;;;6.43;;
46158;SDS011;31888;44.512;26.104;2023-07-24T02:34:59;9.05;;;6.20;;
46158;SDS011;31888;44.512;26.104;2023-07-24T02:37:23;10.57;;;6.78;;
46158;SDS011;31888;44.512;26.104;2023-07-24T02:39:47;9.98;;;7.00;;
46158;SDS011;31888;44.512;26.104;2023-07-24T02:42:11;12.27;;;7.10;;
46158;SDS011;31888;44.512;26.104;2023-07-24T02:44:34;12.70;;;7.22;;
46158;SDS011;31888;44.512;26.104;2023-07-24T02:46:58;12.73;;;6.53;;
46158;SDS011;31888;44.512;26.104;2023-07-24T02:49:22;10.30;;;7.55;;
46158;SDS011;31888;44.512;26.104;2023-07-24T02:51:47;13.63;;;8.43;;
46158;SDS011;31888;44.512;26.104;2023-07-24T02:54:12;11.07;;;6.78;;
46158;SDS011;31888;44.512;26.104;2023-07-24T02:56:35;10.43;;;6.55;;
46158;SDS011;31888;44.512;26.104;2023-07-24T02:59:00;16.05;;;7.90;;
46158;SDS011;31888;44.512;26.104;2023-07-24T03:01:24;10.02;;;7.40;;
46158;SDS011;31888;44.512;26.104;2023-07-24T03:03:48;15.48;;;10.50;;
46158;SDS011;31888;44.512;26.104;2023-07-24T03:06:12;18.35;;;11.73;;
46158;SDS011;31888;44.512;26.104;2023-07-24T03:08:37;15.57;;;9.50;;
46158;SDS011;31888;44.512;26.104;2023-07-24T03:11:04;14.98;;;10.18;;
46158;SDS011;31888;44.512;26.104;2023-07-24T03:13:28;11.00;;;8.15;;
46158;SDS011;31888;44.512;26.104;2023-07-24T03:15:52;14.02;;;9.07;;
46158;SDS011;31888;44.512;26.104;2023-07-24T03:18:16;16.77;;;9.57;;
46158;SDS011;31888;44.512;26.104;2023-07-24T03:20:39;15.38;;;8.68;;
46158;SDS011;31888;44.512;26.104;2023-07-24T03:23:03;11.60;;;8.13;;
46158;SDS011;31888;44.512;26.104;2023-07-24T03:25:28;17.65;;;9.15;;
46158;SDS011;31888;44.512;26.104;2023-07-24T03:27:53;10.48;;;8.13;;
46158;SDS011;31888;44.512;26.104;2023-07-24T03:30:17;11.80;;;7.97;;
46158;SDS011;31888;44.512;26.104;2023-07-24T03:32:42;11.70;;;8.27;;
46158;SDS011;31888;44.512;26.104;2023-07-24T03:35:06;11.90;;;8.20;;
46158;SDS011;31888;44.512;26.104;2023-07-24T03:37:30;12.90;;;8.18;;
46158;SDS011;31888;44.512;26.104;2023-07-24T03:39:54;12.13;;;7.57;;
46158;SDS011;31888;44.512;26.104;2023-07-24T03:42:25;16.45;;;7.75;;
46158;SDS011;31888;44.512;26.104;2023-07-24T03:44:50;9.45;;;6.53;;
46158;SDS011;31888;44.512;26.104;2023-07-24T03:47:14;13.68;;;7.38;;
46158;SDS011;31888;44.512;26.104;2023-07-24T03:49:38;11.30;;;7.10;;
46158;SDS011;31888;44.512;26.104;2023-07-24T03:52:01;12.52;;;6.95;;
46158;SDS011;31888;44.512;26.104;2023-07-24T03:54:26;9.75;;;7.05;;
46158;SDS011;31888;44.512;26.104;2023-07-24T03:56:49;10.55;;;7.47;;
46158;SDS011;31888;44.512;26.104;2023-07-24T03:59:14;10.82;;;6.75;;
46158;SDS011;31888;44.512;26.104;2023-07-24T04:01:38;10.50;;;6.30;;
46158;SDS011;31888;44.512;26.104;2023-07-24T04:04:02;9.10;;;6.80;;
46158;SDS011;31888;44.512;26.104;2023-07-24T04:06:26;10.98;;;7.35;;
46158;SDS011;31888;44.512;26.104;2023-07-24T04:08:52;8.60;;;7.15;;
46158;SDS011;31888;44.512;26.104;2023-07-24T04:11:15;9.18;;;6.45;;
46158;SDS011;31888;44.512;26.104;2023-07-24T04:13:39;9.85;;;6.90;;
46158;SDS011;31888;44.512;26.104;2023-07-24T04:16:04;8.85;;;6.68;;
46158;SDS011;31888;44.512;26.104;2023-07-24T04:18:28;10.20;;;6.82;;
46158;SDS011;31888;44.512;26.104;2023-07-24T04:20:52;8.00;;;6.32;;
46158;SDS011;31888;44.512;26.104;2023-07-24T04:23:16;9.65;;;6.65;;
46158;SDS011;31888;44.512;26.104;2023-07-24T04:25:39;9.98;;;6.20;;
46158;SDS011;31888;44.512;26.104;2023-07-24T04:28:03;9.20;;;6.10;;
46158;SDS011;31888;44.512;26.104;2023-07-24T04:30:27;11.93;;;6.93;;
46158;SDS011;31888;44.512;26.104;2023-07-24T04:32:52;11.73;;;6.95;;
46158;SDS011;31888;44.512;26.104;2023-07-24T04:35:16;10.23;;;6.70;;
46158;SDS011;31888;44.512;26.104;2023-07-24T04:37:40;12.45;;;6.45;;
46158;SDS011;31888;44.512;26.104;2023-07-24T04:40:04;7.70;;;5.78;;
46158;SDS011;31888;44.512;26.104;2023-07-24T04:42:29;8.23;;;5.85;;
46158;SDS011;31888;44.512;26.104;2023-07-24T04:44:53;9.05;;;6.07;;
46158;SDS011;31888;44.512;26.104;2023-07-24T04:47:17;8.07;;;5.75;;
46158;SDS011;31888;44.512;26.104;2023-07-24T04:49:42;9.70;;;6.03;;
46158;SDS011;31888;44.512;26.104;2023-07-24T04:52:06;9.32;;;5.88;;
46158;SDS011;31888;44.512;26.104;2023-07-24T04:54:30;8.18;;;5.70;;
46158;SDS011;31888;44.512;26.104;2023-07-24T04:56:53;8.18;;;5.72;;
46158;SDS011;31888;44.512;26.104;2023-07-24T04:59:17;9.15;;;5.65;;
46158;SDS011;31888;44.512;26.104;2023-07-24T05:01:41;8.95;;;5.72;;
46158;SDS011;31888;44.512;26.104;2023-07-24T05:04:05;9.90;;;5.45;;
46158;SDS011;31888;44.512;26.104;2023-07-24T05:06:30;7.25;;;5.65;;
46158;SDS011;31888;44.512;26.104;2023-07-24T05:08:54;11.82;;;5.53;;
46158;SDS011;31888;44.512;26.104;2023-07-24T05:11:18;13.05;;;6.00;;
46158;SDS011;31888;44.512;26.104;2023-07-24T05:13:41;8.50;;;5.43;;
46158;SDS011;31888;44.512;26.104;2023-07-24T05:16:05;9.35;;;5.18;;
46158;SDS011;31888;44.512;26.104;2023-07-24T05:18:29;6.80;;;5.88;;
46158;SDS011;31888;44.512;26.104;2023-07-24T05:20:53;6.22;;;5.45;;
46158;SDS011;31888;44.512;26.104;2023-07-24T05:23:18;7.20;;;5.20;;
46158;SDS011;31888;44.512;26.104;2023-07-24T05:25:42;12.18;;;5.82;;
46158;SDS011;31888;44.512;26.104;2023-07-24T05:28:05;8.30;;;5.55;;
46158;SDS011;31888;44.512;26.104;2023-07-24T05:30:29;7.45;;;5.53;;
46158;SDS011;31888;44.512;26.104;2023-07-24T05:32:53;7.38;;;4.85;;
46158;SDS011;31888;44.512;26.104;2023-07-24T05:35:17;6.97;;;5.15;;
46158;SDS011;31888;44.512;26.104;2023-07-24T05:37:41;9.70;;;5.55;;
46158;SDS011;31888;44.512;26.104;2023-07-24T05:40:07;9.00;;;5.35;;
46158;SDS011;31888;44.512;26.104;2023-07-24T05:42:31;8.05;;;5.20;;
46158;SDS011;31888;44.512;26.104;2023-07-24T05:44:55;8.15;;;5.20;;
46158;SDS011;31888;44.512;26.104;2023-07-24T05:47:19;8.68;;;5.20;;
46158;SDS011;31888;44.512;26.104;2023-07-24T05:49:43;5.53;;;4.57;;
46158;SDS011;31888;44.512;26.104;2023-07-24T05:52:07;7.80;;;4.95;;
46158;SDS011;31888;44.512;26.104;2023-07-24T05:54:31;9.68;;;4.88;;
46158;SDS011;31888;44.512;26.104;2023-07-24T05:56:56;6.45;;;4.35;;
46158;SDS011;31888;44.512;26.104;2023-07-24T05:59:20;9.13;;;5.55;;
46158;SDS011;31888;44.512;26.104;2023-07-24T06:01:44;6.10;;;4.30;;
46158;SDS011;31888;44.512;26.104;2023-07-24T06:04:08;9.48;;;4.72;;
46158;SDS011;31888;44.512;26.104;2023-07-24T06:06:32;10.13;;;4.57;;
46158;SDS011;31888;44.512;26.104;2023-07-24T06:08:56;7.25;;;4.30;;
46158;SDS011;31888;44.512;26.104;2023-07-24T06:11:19;14.02;;;4.57;;
46158;SDS011;31888;44.512;26.104;2023-07-24T06:13:46;8.18;;;5.22;;
46158;SDS011;31888;44.512;26.104;2023-07-24T06:16:10;10.10;;;4.40;;
46158;SDS011;31888;44.512;26.104;2023-07-24T06:18:35;7.60;;;4.80;;
46158;SDS011;31888;44.512;26.104;2023-07-24T06:20:59;8.57;;;3.78;;
46158;SDS011;31888;44.512;26.104;2023-07-24T06:23:23;8.30;;;4.03;;
46158;SDS011;31888;44.512;26.104;2023-07-24T06:25:47;8.20;;;3.65;;
46158;SDS011;31888;44.512;26.104;2023-07-24T06:28:11;6.60;;;3.90;;
46158;SDS011;31888;44.512;26.104;2023-07-24T06:30:36;5.63;;;3.80;;
46158;SDS011;31888;44.512;26.104;2023-07-24T06:33:01;6.05;;;3.58;;
46158;SDS011;31888;44.512;26.104;2023-07-24T06:35:25;5.28;;;3.45;;
46158;SDS011;31888;44.512;26.104;2023-07-24T06:37:49;4.82;;;3.83;;
46158;SDS011;31888;44.512;26.104;2023-07-24T06:40:13;9.05;;;4.20;;
46158;SDS011;31888;44.512;26.104;2023-07-24T06:42:37;4.90;;;3.60;;
46158;SDS011;31888;44.512;26.104;2023-07-24T06:45:01;4.50;;;3.70;;
46158;SDS011;31888;44.512;26.104;2023-07-24T06:47:30;7.68;;;4.43;;
46158;SDS011;31888;44.512;26.104;2023-07-24T06:49:54;11.10;;;4.10;;
46158;SDS011;31888;44.512;26.104;2023-07-24T06:52:17;6.97;;;3.67;;
46158;SDS011;31888;44.512;26.104;2023-07-24T06:54:41;5.05;;;4.20;;
46158;SDS011;31888;44.512;26.104;2023-07-24T06:57:05;5.85;;;3.33;;
46158;SDS011;31888;44.512;26.104;2023-07-24T06:59:29;3.45;;;3.15;;
46158;SDS011;31888;44.512;26.104;2023-07-24T07:01:53;5.47;;;3.80;;
46158;SDS011;31888;44.512;26.104;2023-07-24T07:04:18;4.95;;;3.70;;
46158;SDS011;31888;44.512;26.104;2023-07-24T07:06:42;4.72;;;3.47;;
46158;SDS011;31888;44.512;26.104;2023-07-24T07:09:06;7.00;;;4.00;;
46158;SDS011;31888;44.512;26.104;2023-07-24T07:11:30;6.78;;;3.78;;
46158;SDS011;31888;44.512;26.104;2023-07-24T07:13:54;7.43;;;4.38;;
46158;SDS011;31888;44.512;26.104;2023-07-24T07:16:18;4.97;;;3.50;;
46158;SDS011;31888;44.512;26.104;2023-07-24T07:18:42;5.45;;;4.05;;
46158;SDS011;31888;44.512;26.104;2023-07-24T07:21:07;8.13;;;4.10;;
46158;SDS011;31888;44.512;26.104;2023-07-24T07:23:31;10.32;;;4.20;;
46158;SDS011;31888;44.512;26.104;2023-07-24T07:25:55;6.00;;;3.50;;
46158;SDS011;31888;44.512;26.104;2023-07-24T07:28:18;7.50;;;3.78;;
46158;SDS011;31888;44.512;26.104;2023-07-24T07:30:43;8.13;;;3.80;;
46158;SDS011;31888;44.512;26.104;2023-07-24T07:33:07;5.95;;;3.83;;
46158;SDS011;31888;44.512;26.104;2023-07-24T07:35:31;5.70;;;4.00;;
46158;SDS011;31888;44.512;26.104;2023-07-24T07:38:01;6.45;;;4.40;;
46158;SDS011;31888;44.512;26.104;2023-07-24T07:40:25;8.68;;;4.20;;
46158;SDS011;31888;44.512;26.104;2023-07-24T07:42:49;4.53;;;4.00;;
46158;SDS011;31888;44.512;26.104;2023-07-24T07:45:13;8.32;;;4.25;;
46158;SDS011;31888;44.512;26.104;2023-07-24T07:47:37;7.25;;;4.32;;
46158;SDS011;31888;44.512;26.104;2023-07-24T07:50:01;6.60;;;4.03;;
46158;SDS011;31888;44.512;26.104;2023-07-24T07:52:25;5.75;;;4.13;;
46158;SDS011;31888;44.512;26.104;2023-07-24T07:54:50;4.30;;;3.90;;
46158;SDS011;31888;44.512;26.104;2023-07-24T07:57:14;5.43;;;3.80;;
46158;SDS011;31888;44.512;26.104;2023-07-24T07:59:38;9.18;;;4.25;;
46158;SDS011;31888;44.512;26.104;2023-07-24T08:02:02;5.75;;;4.18;;
46158;SDS011;31888;44.512;26.104;2023-07-24T08:04:26;5.82;;;4.03;;
46158;SDS011;31888;44.512;26.104;2023-07-24T08:06:50;13.25;;;4.53;;
46158;SDS011;31888;44.512;26.104;2023-07-24T08:09:14;8.23;;;4.30;;
46158;SDS011;31888;44.512;26.104;2023-07-24T08:11:41;7.10;;;4.32;;
46158;SDS011;31888;44.512;26.104;2023-07-24T08:14:05;7.55;;;4.40;;
46158;SDS011;31888;44.512;26.104;2023-07-24T08:16:29;7.55;;;4.70;;
46158;SDS011;31888;44.512;26.104;2023-07-24T08:18:53;6.68;;;4.32;;
46158;SDS011;31888;44.512;26.104;2023-07-24T08:21:19;7.80;;;3.95;;
46158;SDS011;31888;44.512;26.104;2023-07-24T08:23:43;6.28;;;4.00;;
46158;SDS011;31888;44.512;26.104;2023-07-24T08:26:06;6.13;;;4.20;;
46158;SDS011;31888;44.512;26.104;2023-07-24T08:28:32;8.18;;;4.75;;
46158;SDS011;31888;44.512;26.104;2023-07-24T08:30:56;6.43;;;4.43;;
46158;SDS011;31888;44.512;26.104;2023-07-24T08:33:20;5.95;;;5.38;;
46158;SDS011;31888;44.512;26.104;2023-07-24T08:35:44;8.55;;;4.90;;
46158;SDS011;31888;44.512;26.104;2023-07-24T08:38:08;6.32;;;5.18;;
46158;SDS011;31888;44.512;26.104;2023-07-24T08:40:32;9.27;;;5.05;;
46158;SDS011;31888;44.512;26.104;2023-07-24T08:42:56;10.52;;;5.50;;
46158;SDS011;31888;44.512;26.104;2023-07-24T08:45:21;9.68;;;5.95;;
46158;SDS011;31888;44.512;26.104;2023-07-24T08:47:46;8.55;;;6.03;;
46158;SDS011;31888;44.512;26.104;2023-07-24T08:50:10;8.23;;;6.10;;
46158;SDS011;31888;44.512;26.104;2023-07-24T08:52:37;9.23;;;5.85;;
46158;SDS011;31888;44.512;26.104;2023-07-24T08:55:01;7.93;;;6.03;;
46158;SDS011;31888;44.512;26.104;2023-07-24T08:57:27;8.90;;;6.25;;
46158;SDS011;31888;44.512;26.104;2023-07-24T08:59:51;8.85;;;5.60;;
46158;SDS011;31888;44.512;26.104;2023-07-24T09:02:16;9.35;;;5.60;;
46158;SDS011;31888;44.512;26.104;2023-07-24T09:04:40;11.07;;;6.28;;
46158;SDS011;31888;44.512;26.104;2023-07-24T09:07:04;7.50;;;6.35;;
46158;SDS011;31888;44.512;26.104;2023-07-24T09:09:29;6.63;;;5.80;;
46158;SDS011;31888;44.512;26.104;2023-07-24T09:11:54;8.05;;;6.43;;
46158;SDS011;31888;44.512;26.104;2023-07-24T09:14:21;9.45;;;5.45;;
46158;SDS011;31888;44.512;26.104;2023-07-24T09:16:46;7.80;;;5.85;;
46158;SDS011;31888;44.512;26.104;2023-07-24T09:19:17;12.93;;;6.30;;
46158;SDS011;31888;44.512;26.104;2023-07-24T09:21:47;7.80;;;6.22;;
46158;SDS011;31888;44.512;26.104;2023-07-24T09:24:12;10.90;;;6.07;;
46158;SDS011;31888;44.512;26.104;2023-07-24T09:26:46;7.75;;;6.22;;
46158;SDS011;31888;44.512;26.104;2023-07-24T09:29:11;9.25;;;6.10;;
46158;SDS011;31888;44.512;26.104;2023-07-24T09:31:35;7.50;;;5.47;;
46158;SDS011;31888;44.512;26.104;2023-07-24T09:33:59;7.00;;;5.43;;
46158;SDS011;31888;44.512;26.104;2023-07-24T09:36:24;6.28;;;5.65;;
46158;SDS011;31888;44.512;26.104;2023-07-24T09:38:49;8.10;;;5.78;;
46158;SDS011;31888;44.512;26.104;2023-07-24T09:41:26;5.88;;;5.25;;
46158;SDS011;31888;44.512;26.104;2023-07-24T09:43:57;15.53;;;6.37;;
46158;SDS011;31888;44.512;26.104;2023-07-24T09:46:22;7.50;;;5.72;;
46158;SDS011;31888;44.512;26.104;2023-07-24T09:48:49;5.93;;;5.37;;
46158;SDS011;31888;44.512;26.104;2023-07-24T09:51:17;11.52;;;5.65;;
46158;SDS011;31888;44.512;26.104;2023-07-24T09:53:46;5.93;;;5.32;;
46158;SDS011;31888;44.512;26.104;2023-07-24T09:56:16;9.02;;;6.40;;
46158;SDS011;31888;44.512;26.104;2023-07-24T09:58:52;6.10;;;5.50;;
46158;SDS011;31888;44.512;26.104;2023-07-24T10:01:17;8.93;;;5.75;;
46158;SDS011;31888;44.512;26.104;2023-07-24T10:03:43;9.82;;;6.30;;
46158;SDS011;31888;44.512;26.104;2023-07-24T10:06:09;7.78;;;5.43;;
46158;SDS011;31888;44.512;26.104;2023-07-24T10:08:34;6.40;;;5.30;;
46158;SDS011;31888;44.512;26.104;2023-07-24T10:10:59;7.90;;;5.95;;
46158;SDS011;31888;44.512;26.104;2023-07-24T10:13:25;13.23;;;6.40;;
46158;SDS011;31888;44.512;26.104;2023-07-24T10:15:49;8.68;;;6.13;;
46158;SDS011;31888;44.512;26.104;2023-07-24T10:18:15;8.80;;;6.30;;
46158;SDS011;31888;44.512;26.104;2023-07-24T10:20:39;8.27;;;6.63;;
46158;SDS011;31888;44.512;26.104;2023-07-24T10:23:04;13.23;;;5.32;;
46158;SDS011;31888;44.512;26.104;2023-07-24T10:25:28;7.63;;;5.63;;
46158;SDS011;31888;44.512;26.104;2023-07-24T10:27:55;6.57;;;5.88;;
46158;SDS011;31888;44.512;26.104;2023-07-24T10:30:28;8.57;;;5.63;;
46158;SDS011;31888;44.512;26.104;2023-07-24T10:33:02;7.30;;;5.93;;
46158;SDS011;31888;44.512;26.104;2023-07-24T10:35:35;8.15;;;5.70;;
46158;SDS011;31888;44.512;26.104;2023-07-24T10:38:03;11.30;;;6.18;;
46158;SDS011;31888;44.512;26.104;2023-07-24T10:40:27;6.68;;;5.32;;
46158;SDS011;31888;44.512;26.104;2023-07-24T10:42:59;7.57;;;5.80;;
46158;SDS011;31888;44.512;26.104;2023-07-24T10:45:24;7.50;;;5.45;;
46158;SDS011;31888;44.512;26.104;2023-07-24T10:47:48;10.82;;;5.55;;
46158;SDS011;31888;44.512;26.104;2023-07-24T10:50:13;7.65;;;5.65;;
46158;SDS011;31888;44.512;26.104;2023-07-24T10:52:36;8.52;;;6.10;;
46158;SDS011;31888;44.512;26.104;2023-07-24T10:55:00;8.70;;;5.20;;
46158;SDS011;31888;44.512;26.104;2023-07-24T10:57:25;7.55;;;5.20;;
46158;SDS011;31888;44.512;26.104;2023-07-24T10:59:51;6.93;;;5.10;;
46158;SDS011;31888;44.512;26.104;2023-07-24T11:02:15;5.97;;;5.28;;
46158;SDS011;31888;44.512;26.104;2023-07-24T11:04:40;6.00;;;5.03;;
46158;SDS011;31888;44.512;26.104;2023-07-24T11:07:04;6.50;;;5.32;;
46158;SDS011;31888;44.512;26.104;2023-07-24T11:09:34;10.27;;;5.70;;
46158;SDS011;31888;44.512;26.104;2023-07-24T11:11:59;8.57;;;5.45;;
46158;SDS011;31888;44.512;26.104;2023-07-24T11:14:23;5.80;;;4.80;;
46158;SDS011;31888;44.512;26.104;2023-07-24T11:16:49;6.07;;;4.72;;
46158;SDS011;31888;44.512;26.104;2023-07-24T11:19:13;7.38;;;5.63;;
46158;SDS011;31888;44.512;26.104;2023-07-24T11:21:46;7.45;;;4.57;;
46158;SDS011;31888;44.512;26.104;2023-07-24T11:24:09;5.88;;;4.97;;
46158;SDS011;31888;44.512;26.104;2023-07-24T11:26:33;6.40;;;5.38;;
46158;SDS011;31888;44.512;26.104;2023-07-24T11:28:57;5.75;;;4.85;;
46158;SDS011;31888;44.512;26.104;2023-07-24T11:31:21;8.85;;;5.40;;
46158;SDS011;31888;44.512;26.104;2023-07-24T11:33:48;5.18;;;4.68;;
46158;SDS011;31888;44.512;26.104;2023-07-24T11:36:12;8.40;;;5.30;;
46158;SDS011;31888;44.512;26.104;2023-07-24T11:38:37;7.15;;;5.18;;
46158;SDS011;31888;44.512;26.104;2023-07-24T11:41:01;9.75;;;5.53;;
46158;SDS011;31888;44.512;26.104;2023-07-24T11:43:25;10.10;;;5.82;;
46158;SDS011;31888;44.512;26.104;2023-07-24T11:45:49;10.05;;;5.72;;
46158;SDS011;31888;44.512;26.104;2023-07-24T11:48:15;14.35;;;5.65;;
46158;SDS011;31888;44.512;26.104;2023-07-24T11:50:43;8.43;;;5.68;;
46158;SDS011;31888;44.512;26.104;2023-07-24T11:53:07;15.63;;;6.30;;
46158;SDS011;31888;44.512;26.104;2023-07-24T11:55:43;32.03;;;8.40;;
46158;SDS011;31888;44.512;26.104;2023-07-24T11:58:06;10.82;;;6.43;;
46158;SDS011;31888;44.512;26.104;2023-07-24T12:00:33;8.38;;;6.55;;
46158;SDS011;31888;44.512;26.104;2023-07-24T12:02:58;14.57;;;6.78;;
46158;SDS011;31888;44.512;26.104;2023-07-24T12:05:23;8.65;;;6.32;;
46158;SDS011;31888;44.512;26.104;2023-07-24T12:07:48;14.48;;;6.30;;
46158;SDS011;31888;44.512;26.104;2023-07-24T12:10:12;9.55;;;6.72;;
46158;SDS011;31888;44.512;26.104;2023-07-24T12:12:47;9.10;;;6.57;;
46158;SDS011;31888;44.512;26.104;2023-07-24T12:15:11;11.82;;;6.45;;
46158;SDS011;31888;44.512;26.104;2023-07-24T12:17:36;10.32;;;7.05;;
46158;SDS011;31888;44.512;26.104;2023-07-24T12:20:00;8.32;;;6.65;;
46158;SDS011;31888;44.512;26.104;2023-07-24T12:22:24;9.02;;;7.03;;
46158;SDS011;31888;44.512;26.104;2023-07-24T12:24:53;10.75;;;6.45;;
46158;SDS011;31888;44.512;26.104;2023-07-24T12:27:17;9.90;;;6.68;;
46158;SDS011;31888;44.512;26.104;2023-07-24T12:29:40;11.23;;;8.00;;
46158;SDS011;31888;44.512;26.104;2023-07-24T12:32:05;7.47;;;6.10;;
46158;SDS011;31888;44.512;26.104;2023-07-24T12:34:29;9.32;;;6.25;;
46158;SDS011;31888;44.512;26.104;2023-07-24T12:36:53;9.95;;;6.82;;
46158;SDS011;31888;44.512;26.104;2023-07-24T12:39:16;9.10;;;6.65;;
46158;SDS011;31888;44.512;26.104;2023-07-24T12:41:42;10.23;;;7.50;;
46158;SDS011;31888;44.512;26.104;2023-07-24T12:44:05;10.52;;;7.88;;
46158;SDS011;31888;44.512;26.104;2023-07-24T12:46:29;17.00;;;11.23;;
46158;SDS011;31888;44.512;26.104;2023-07-24T12:48:53;9.25;;;7.07;;
46158;SDS011;31888;44.512;26.104;2023-07-24T12:51:17;11.23;;;7.50;;
46158;SDS011;31888;44.512;26.104;2023-07-24T12:53:41;14.13;;;7.30;;
46158;SDS011;31888;44.512;26.104;2023-07-24T12:56:21;9.25;;;6.53;;
46158;SDS011;31888;44.512;26.104;2023-07-24T12:58:47;15.05;;;9.38;;
46158;SDS011;31888;44.512;26.104;2023-07-24T13:01:10;8.95;;;6.65;;
46158;SDS011;31888;44.512;26.104;2023-07-24T13:03:34;19.77;;;13.35;;
46158;SDS011;31888;44.512;26.104;2023-07-24T13:05:59;13.05;;;7.57;;
46158;SDS011;31888;44.512;26.104;2023-07-24T13:08:23;16.58;;;11.98;;
46158;SDS011;31888;44.512;26.104;2023-07-24T13:10:47;15.68;;;11.50;;
46158;SDS011;31888;44.512;26.104;2023-07-24T13:13:10;12.18;;;9.10;;
46158;SDS011;31888;44.512;26.104;2023-07-24T13:15:36;11.10;;;7.47;;
46158;SDS011;31888;44.512;26.104;2023-07-24T13:18:00;12.77;;;7.55;;
46158;SDS011;31888;44.512;26.104;2023-07-24T13:20:38;9.25;;;6.80;;
46158;SDS011;31888;44.512;26.104;2023-07-24T13:23:02;11.10;;;7.57;;
46158;SDS011;31888;44.512;26.104;2023-07-24T13:25:26;10.48;;;7.32;;
46158;SDS011;31888;44.512;26.104;2023-07-24T13:27:50;11.70;;;7.78;;
46158;SDS011;31888;44.512;26.104;2023-07-24T13:30:15;10.82;;;8.45;;
46158;SDS011;31888;44.512;26.104;2023-07-24T13:32:41;13.23;;;8.38;;
46158;SDS011;31888;44.512;26.104;2023-07-24T13:35:05;13.63;;;8.65;;
46158;SDS011;31888;44.512;26.104;2023-07-24T13:37:29;14.55;;;7.68;;
46158;SDS011;31888;44.512;26.104;2023-07-24T13:39:53;12.13;;;7.97;;
46158;SDS011;31888;44.512;26.104;2023-07-24T13:42:17;13.02;;;7.32;;
46158;SDS011;31888;44.512;26.104;2023-07-24T13:44:41;9.77;;;7.32;;
46158;SDS011;31888;44.512;26.104;2023-07-24T13:47:04;12.50;;;7.07;;
46158;SDS011;31888;44.512;26.104;2023-07-24T13:49:30;13.52;;;7.97;;
46158;SDS011;31888;44.512;26.104;2023-07-24T13:51:54;12.88;;;7.50;;
46158;SDS011;31888;44.512;26.104;2023-07-24T13:54:17;16.52;;;7.63;;
46158;SDS011;31888;44.512;26.104;2023-07-24T13:56:41;12.13;;;7.70;;
46158;SDS011;31888;44.512;26.104;2023-07-24T13:59:05;15.48;;;8.60;;
46158;SDS011;31888;44.512;26.104;2023-07-24T14:01:29;11.70;;;7.93;;
46158;SDS011;31888;44.512;26.104;2023-07-24T14:03:53;10.88;;;7.88;;
46158;SDS011;31888;44.512;26.104;2023-07-24T14:06:19;11.05;;;7.65;;
46158;SDS011;31888;44.512;26.104;2023-07-24T14:08:43;11.65;;;8.02;;
46158;SDS011;31888;44.512;26.104;2023-07-24T14:11:07;14.10;;;8.63;;
46158;SDS011;31888;44.512;26.104;2023-07-24T14:13:31;14.10;;;9.65;;